sensor_id;sensor_type;location;lat;lon;timestamp;pressure;altitude;pressure_sealevel;temperature;humidity
75536;BME280;64119;52.070;20.804;2023-10-31T00:01:32;99248.09;;;10.54;98.79
75536;BME280;64119;52.070;20.804;2023-10-31T00:04:00;99239.38;;;10.50;98.57
75536;BME280;64119;52.070;20.804;2023-10-31T00:06:28;99241.15;;;10.48;98.03
75536;BME280;64119;52.070;20.804;2023-10-31T00:08:56;99241.14;;;10.45;97.45
75536;BME280;64119;52.070;20.804;2023-10-31T00:11:24;99242.21;;;10.43;97.31
75536;BME280;64119;52.070;20.804;2023-10-31T00:13:51;99237.80;;;10.39;98.93
75536;BME280;64119;52.070;20.804;2023-10-31T00:16:19;99230.52;;;10.37;97.82
75536;BME280;64119;52.070;20.804;2023-10-31T00:18:47;99230.80;;;10.35;97.60
75536;BME280;64119;52.070;20.804;2023-10-31T00:21:15;99222.17;;;10.33;97.78
75536;BME280;64119;52.070;20.804;2023-10-31T00:23:48;99223.73;;;10.31;98.23
75536;BME280;64119;52.070;20.804;2023-10-31T00:26:16;99216.01;;;10.28;98.18
75536;BME280;64119;52.070;20.804;2023-10-31T00:28:49;99207.13;;;10.27;98.43
75536;BME280;64119;52.070;20.804;2023-10-31T00:31:17;99203.38;;;10.26;99.89
75536;BME280;64119;52.070;20.804;2023-10-31T00:33:45;99200.36;;;10.25;98.20
75536;BME280;64119;52.070;20.804;2023-10-31T00:36:13;99203.02;;;10.25;97.00
75536;BME280;64119;52.070;20.804;2023-10-31T00:38:40;99200.82;;;10.24;97.45
75536;BME280;64119;52.070;20.804;2023-10-31T00:41:08;99199.54;;;10.22;98.69
75536;BME280;64119;52.070;20.804;2023-10-31T00:43:36;99191.47;;;10.21;98.71
75536;BME280;64119;52.070;20.804;2023-10-31T00:46:04;99178.61;;;10.18;100.00
75536;BME280;64119;52.070;20.804;2023-10-31T00:48:34;99175.84;;;10.16;99.91
75536;BME280;64119;52.070;20.804;2023-10-31T00:51:04;99169.52;;;10.16;99.33
75536;BME280;64119;52.070;20.804;2023-10-31T00:53:32;99163.73;;;10.16;99.04
75536;BME280;64119;52.070;20.804;2023-10-31T00:56:01;99162.73;;;10.14;100.00
75536;BME280;64119;52.070;20.804;2023-10-31T00:58:30;99158.95;;;10.12;100.00
75536;BME280;64119;52.070;20.804;2023-10-31T01:00:58;99150.58;;;10.11;99.73
75536;BME280;64119;52.070;20.804;2023-10-31T01:03:26;99139.84;;;10.11;99.18
75536;BME280;64119;52.070;20.804;2023-10-31T01:05:54;99142.05;;;10.10;98.86
75536;BME280;64119;52.070;20.804;2023-10-31T01:08:22;99130.86;;;10.08;99.64
75536;BME280;64119;52.070;20.804;2023-10-31T01:10:50;99132.71;;;10.07;99.93
75536;BME280;64119;52.070;20.804;2023-10-31T01:13:18;99127.61;;;10.06;99.99
75536;BME280;64119;52.070;20.804;2023-10-31T01:15:46;99125.91;;;10.06;99.00
75536;BME280;64119;52.070;20.804;2023-10-31T01:18:15;99119.27;;;10.05;99.72
75536;BME280;64119;52.070;20.804;2023-10-31T01:20:43;99113.98;;;10.04;100.00
75536;BME280;64119;52.070;20.804;2023-10-31T01:23:11;99113.81;;;10.04;100.00
75536;BME280;64119;52.070;20.804;2023-10-31T01:25:39;99122.13;;;10.05;100.00
75536;BME280;64119;52.070;20.804;2023-10-31T01:28:07;99129.77;;;10.07;99.92
75536;BME280;64119;52.070;20.804;2023-10-31T01:30:34;99120.40;;;10.07;99.75
75536;BME280;64119;52.070;20.804;2023-10-31T01:33:02;99115.98;;;10.08;99.86
75536;BME280;64119;52.070;20.804;2023-10-31T01:35:30;99111.25;;;10.08;100.00
75536;BME280;64119;52.070;20.804;2023-10-31T01:37:58;99101.64;;;10.08;100.00
75536;BME280;64119;52.070;20.804;2023-10-31T01:40:26;99081.48;;;10.09;100.00
75536;BME280;64119;52.070;20.804;2023-10-31T01:42:55;99056.23;;;10.09;100.00
75536;BME280;64119;52.070;20.804;2023-10-31T01:45:23;99041.09;;;10.08;100.00
75536;BME280;64119;52.070;20.804;2023-10-31T01:47:51;99043.00;;;10.10;100.00
75536;BME280;64119;52.070;20.804;2023-10-31T01:50:19;99046.78;;;10.10;100.00
75536;BME280;64119;52.070;20.804;2023-10-31T01:52:47;99053.40;;;10.11;100.00
75536;BME280;64119;52.070;20.804;2023-10-31T01:55:15;99043.00;;;10.12;100.00
75536;BME280;64119;52.070;20.804;2023-10-31T01:57:46;99024.57;;;10.14;100.00
75536;BME280;64119;52.070;20.804;2023-10-31T02:00:15;99011.00;;;10.14;100.00
75536;BME280;64119;52.070;20.804;2023-10-31T02:02:44;99013.99;;;10.15;100.00
75536;BME280;64119;52.070;20.804;2023-10-31T02:05:13;99019.52;;;10.17;100.00
75536;BME280;64119;52.070;20.804;2023-10-31T02:07:44;99009.52;;;10.19;100.00
75536;BME280;64119;52.070;20.804;2023-10-31T02:10:13;98997.39;;;10.21;100.00
75536;BME280;64119;52.070;20.804;2023-10-31T02:12:41;98990.96;;;10.23;100.00
75536;BME280;64119;52.070;20.804;2023-10-31T02:15:10;98987.65;;;10.25;100.00
75536;BME280;64119;52.070;20.804;2023-10-31T02:17:39;98982.98;;;10.25;100.00
75536;BME280;64119;52.070;20.804;2023-10-31T02:20:07;98978.74;;;10.27;100.00
75536;BME280;64119;52.070;20.804;2023-10-31T02:22:35;98975.25;;;10.29;100.00
75536;BME280;64119;52.070;20.804;2023-10-31T02:25:15;98975.78;;;10.32;100.00
75536;BME280;64119;52.070;20.804;2023-10-31T02:27:43;98976.13;;;10.35;100.00
75536;BME280;64119;52.070;20.804;2023-10-31T02:30:14;98976.30;;;10.37;100.00
75536;BME280;64119;52.070;20.804;2023-10-31T02:32:42;98962.16;;;10.40;100.00
75536;BME280;64119;52.070;20.804;2023-10-31T02:35:15;98960.73;;;10.43;100.00
75536;BME280;64119;52.070;20.804;2023-10-31T02:37:44;98950.58;;;10.46;100.00
75536;BME280;64119;52.070;20.804;2023-10-31T02:40:13;98946.95;;;10.50;100.00
75536;BME280;64119;52.070;20.804;2023-10-31T02:42:41;98946.77;;;10.52;100.00
75536;BME280;64119;52.070;20.804;2023-10-31T02:45:12;98935.89;;;10.56;100.00
75536;BME280;64119;52.070;20.804;2023-10-31T02:47:40;98936.56;;;10.59;100.00
75536;BME280;64119;52.070;20.804;2023-10-31T02:50:08;98931.58;;;10.63;100.00
75536;BME280;64119;52.070;20.804;2023-10-31T02:52:36;98924.96;;;10.65;100.00
75536;BME280;64119;52.070;20.804;2023-10-31T02:55:06;98917.20;;;10.69;100.00
75536;BME280;64119;52.070;20.804;2023-10-31T02:57:35;98915.01;;;10.72;100.00
75536;BME280;64119;52.070;20.804;2023-10-31T03:00:05;98913.58;;;10.76;100.00
75536;BME280;64119;52.070;20.804;2023-10-31T03:02:34;98911.55;;;10.81;100.00
75536;BME280;64119;52.070;20.804;2023-10-31T03:05:02;98907.95;;;10.84;100.00
75536;BME280;64119;52.070;20.804;2023-10-31T03:07:31;98908.43;;;10.88;100.00
75536;BME280;64119;52.070;20.804;2023-10-31T03:09:58;98906.33;;;10.92;100.00
75536;BME280;64119;52.070;20.804;2023-10-31T03:12:27;98901.80;;;10.95;100.00
75536;BME280;64119;52.070;20.804;2023-10-31T03:14:58;98901.97;;;11.00;100.00
75536;BME280;64119;52.070;20.804;2023-10-31T03:17:26;98900.89;;;11.04;100.00
75536;BME280;64119;52.070;20.804;2023-10-31T03:19:55;98890.13;;;11.08;100.00
75536;BME280;64119;52.070;20.804;2023-10-31T03:22:23;98883.86;;;11.12;100.00
75536;BME280;64119;52.070;20.804;2023-10-31T03:24:51;98881.92;;;11.16;100.00
75536;BME280;64119;52.070;20.804;2023-10-31T03:27:19;98875.76;;;11.21;100.00
75536;BME280;64119;52.070;20.804;2023-10-31T03:29:47;98861.10;;;11.26;100.00
75536;BME280;64119;52.070;20.804;2023-10-31T03:32:15;98850.14;;;11.29;100.00
75536;BME280;64119;52.070;20.804;2023-10-31T03:34:43;98841.86;;;11.34;100.00
75536;BME280;64119;52.070;20.804;2023-10-31T03:37:11;98830.40;;;11.38;100.00
75536;BME280;64119;52.070;20.804;2023-10-31T03:39:38;98824.98;;;11.44;100.00
75536;BME280;64119;52.070;20.804;2023-10-31T03:42:06;98821.29;;;11.47;100.00
75536;BME280;64119;52.070;20.804;2023-10-31T03:44:34;98817.71;;;11.50;100.00
75536;BME280;64119;52.070;20.804;2023-10-31T03:47:02;98802.81;;;11.54;100.00
75536;BME280;64119;52.070;20.804;2023-10-31T03:49:30;98801.45;;;11.57;100.00
75536;BME280;64119;52.070;20.804;2023-10-31T03:51:57;98801.10;;;11.61;100.00
75536;BME280;64119;52.070;20.804;2023-10-31T03:54:25;98788.77;;;11.65;100.00
75536;BME280;64119;52.070;20.804;2023-10-31T03:56:53;98788.55;;;11.69;100.00
75536;BME280;64119;52.070;20.804;2023-10-31T03:59:21;98778.48;;;11.72;100.00
75536;BME280;64119;52.070;20.804;2023-10-31T04:01:48;98773.98;;;11.76;100.00
75536;BME280;64119;52.070;20.804;2023-10-31T04:04:16;98777.61;;;11.79;100.00
75536;BME280;64119;52.070;20.804;2023-10-31T04:06:44;98776.67;;;11.82;100.00
75536;BME280;64119;52.070;20.804;2023-10-31T04:09:12;98778.39;;;11.86;99.70
75536;BME280;64119;52.070;20.804;2023-10-31T04:11:41;98780.40;;;11.90;99.48
75536;BME280;64119;52.070;20.804;2023-10-31T04:14:10;98774.31;;;11.94;99.29
75536;BME280;64119;52.070;20.804;2023-10-31T04:16:41;98756.06;;;11.96;99.14
75536;BME280;64119;52.070;20.804;2023-10-31T04:19:13;98743.77;;;11.98;99.20
75536;BME280;64119;52.070;20.804;2023-10-31T04:21:41;98751.02;;;12.02;98.77
75536;BME280;64119;52.070;20.804;2023-10-31T04:24:09;98754.02;;;12.05;98.42
75536;BME280;64119;52.070;20.804;2023-10-31T04:26:36;98757.64;;;12.09;98.11
75536;BME280;64119;52.070;20.804;2023-10-31T04:29:04;98756.54;;;12.13;97.90
75536;BME280;64119;52.070;20.804;2023-10-31T04:31:32;98744.38;;;12.16;97.81
75536;BME280;64119;52.070;20.804;2023-10-31T04:34:10;98734.54;;;12.19;97.54
75536;BME280;64119;52.070;20.804;2023-10-31T04:36:38;98724.16;;;12.22;97.26
75536;BME280;64119;52.070;20.804;2023-10-31T04:39:07;98719.64;;;12.26;96.89
75536;BME280;64119;52.070;20.804;2023-10-31T04:41:36;98716.44;;;12.29;96.76
75536;BME280;64119;52.070;20.804;2023-10-31T04:44:04;98716.19;;;12.31;96.55
75536;BME280;64119;52.070;20.804;2023-10-31T04:46:32;98701.63;;;12.34;96.28
75536;BME280;64119;52.070;20.804;2023-10-31T04:49:00;98699.42;;;12.36;96.19
75536;BME280;64119;52.070;20.804;2023-10-31T04:51:33;98694.94;;;12.38;96.04
75536;BME280;64119;52.070;20.804;2023-10-31T04:54:02;98686.06;;;12.41;95.73
75536;BME280;64119;52.070;20.804;2023-10-31T04:56:30;98683.48;;;12.43;95.75
75536;BME280;64119;52.070;20.804;2023-10-31T04:58:58;98674.17;;;12.46;95.47
75536;BME280;64119;52.070;20.804;2023-10-31T05:01:26;98664.61;;;12.50;95.10
75536;BME280;64119;52.070;20.804;2023-10-31T05:03:55;98658.05;;;12.55;94.90
75536;BME280;64119;52.070;20.804;2023-10-31T05:06:37;98662.79;;;12.59;94.45
75536;BME280;64119;52.070;20.804;2023-10-31T05:09:05;98657.84;;;12.63;94.04
75536;BME280;64119;52.070;20.804;2023-10-31T05:11:33;98650.55;;;12.66;93.98
75536;BME280;64119;52.070;20.804;2023-10-31T05:14:01;98651.78;;;12.70;93.74
75536;BME280;64119;52.070;20.804;2023-10-31T05:16:30;98651.95;;;12.74;93.42
75536;BME280;64119;52.070;20.804;2023-10-31T05:18:58;98652.22;;;12.78;92.59
75536;BME280;64119;52.070;20.804;2023-10-31T05:21:32;98646.82;;;12.84;92.47
75536;BME280;64119;52.070;20.804;2023-10-31T05:24:00;98647.17;;;12.89;92.40
75536;BME280;64119;52.070;20.804;2023-10-31T05:26:28;98653.95;;;12.95;91.63
75536;BME280;64119;52.070;20.804;2023-10-31T05:28:57;98659.34;;;13.00;91.89
75536;BME280;64119;52.070;20.804;2023-10-31T05:31:26;98656.84;;;13.03;91.09
75536;BME280;64119;52.070;20.804;2023-10-31T05:33:54;98658.16;;;13.08;91.06
75536;BME280;64119;52.070;20.804;2023-10-31T05:36:23;98661.90;;;13.12;90.87
75536;BME280;64119;52.070;20.804;2023-10-31T05:38:51;98655.21;;;13.15;90.56
75536;BME280;64119;52.070;20.804;2023-10-31T05:41:19;98649.66;;;13.18;90.76
75536;BME280;64119;52.070;20.804;2023-10-31T05:43:47;98652.84;;;13.20;90.60
75536;BME280;64119;52.070;20.804;2023-10-31T05:46:15;98658.15;;;13.23;90.61
75536;BME280;64119;52.070;20.804;2023-10-31T05:48:44;98650.15;;;13.26;89.96
75536;BME280;64119;52.070;20.804;2023-10-31T05:51:17;98654.91;;;13.28;90.17
75536;BME280;64119;52.070;20.804;2023-10-31T05:53:46;98649.45;;;13.30;89.62
75536;BME280;64119;52.070;20.804;2023-10-31T05:56:15;98655.09;;;13.34;89.32
75536;BME280;64119;52.070;20.804;2023-10-31T05:58:43;98659.75;;;13.37;89.19
75536;BME280;64119;52.070;20.804;2023-10-31T06:01:11;98660.35;;;13.41;88.93
75536;BME280;64119;52.070;20.804;2023-10-31T06:03:42;98657.92;;;13.44;88.62
75536;BME280;64119;52.070;20.804;2023-10-31T06:06:12;98662.88;;;13.48;88.55
75536;BME280;64119;52.070;20.804;2023-10-31T06:08:41;98665.66;;;13.53;88.03
75536;BME280;64119;52.070;20.804;2023-10-31T06:11:09;98664.16;;;13.56;88.01
75536;BME280;64119;52.070;20.804;2023-10-31T06:13:40;98658.47;;;13.58;88.08
75536;BME280;64119;52.070;20.804;2023-10-31T06:16:08;98661.54;;;13.60;88.42
75536;BME280;64119;52.070;20.804;2023-10-31T06:18:38;98670.61;;;13.61;87.97
75536;BME280;64119;52.070;20.804;2023-10-31T06:21:07;98668.30;;;13.64;87.54
75536;BME280;64119;52.070;20.804;2023-10-31T06:23:37;98665.52;;;13.64;88.05
75536;BME280;64119;52.070;20.804;2023-10-31T06:26:07;98658.96;;;13.64;88.22
75536;BME280;64119;52.070;20.804;2023-10-31T06:28:35;98652.02;;;13.61;88.18
75536;BME280;64119;52.070;20.804;2023-10-31T06:31:12;98661.29;;;13.62;88.27
75536;BME280;64119;52.070;20.804;2023-10-31T06:33:40;98656.36;;;13.63;88.14
75536;BME280;64119;52.070;20.804;2023-10-31T06:36:08;98654.52;;;13.62;88.10
75536;BME280;64119;52.070;20.804;2023-10-31T06:38:36;98662.26;;;13.63;88.17
75536;BME280;64119;52.070;20.804;2023-10-31T06:41:04;98660.80;;;13.62;88.29
75536;BME280;64119;52.070;20.804;2023-10-31T06:43:32;98667.23;;;13.63;88.23
75536;BME280;64119;52.070;20.804;2023-10-31T06:46:03;98654.78;;;13.61;88.58
75536;BME280;64119;52.070;20.804;2023-10-31T06:48:32;98663.44;;;13.58;88.53
75536;BME280;64119;52.070;20.804;2023-10-31T06:51:03;98659.65;;;13.58;88.65
75536;BME280;64119;52.070;20.804;2023-10-31T06:53:31;98655.16;;;13.57;88.68
75536;BME280;64119;52.070;20.804;2023-10-31T06:55:59;98646.69;;;13.57;88.59
75536;BME280;64119;52.070;20.804;2023-10-31T06:58:27;98645.64;;;13.59;88.46
75536;BME280;64119;52.070;20.804;2023-10-31T07:00:55;98648.41;;;13.58;88.43
75536;BME280;64119;52.070;20.804;2023-10-31T07:03:27;98648.00;;;13.61;88.05
75536;BME280;64119;52.070;20.804;2023-10-31T07:05:55;98645.37;;;13.64;87.90
75536;BME280;64119;52.070;20.804;2023-10-31T07:08:24;98645.08;;;13.65;87.80
75536;BME280;64119;52.070;20.804;2023-10-31T07:10:52;98644.74;;;13.68;87.58
75536;BME280;64119;52.070;20.804;2023-10-31T07:13:20;98646.05;;;13.71;87.73
75536;BME280;64119;52.070;20.804;2023-10-31T07:15:48;98641.02;;;13.75;87.83
75536;BME280;64119;52.070;20.804;2023-10-31T07:18:16;98636.21;;;13.79;87.05
75536;BME280;64119;52.070;20.804;2023-10-31T07:20:43;98631.03;;;13.82;86.90
75536;BME280;64119;52.070;20.804;2023-10-31T07:23:12;98624.41;;;13.86;86.80
75536;BME280;64119;52.070;20.804;2023-10-31T07:25:40;98622.04;;;13.90;86.18
75536;BME280;64119;52.070;20.804;2023-10-31T07:28:08;98621.27;;;13.93;86.15
75536;BME280;64119;52.070;20.804;2023-10-31T07:30:36;98622.27;;;13.97;85.93
75536;BME280;64119;52.070;20.804;2023-10-31T07:33:04;98620.66;;;14.01;85.69
75536;BME280;64119;52.070;20.804;2023-10-31T07:35:32;98620.36;;;14.04;85.22
75536;BME280;64119;52.070;20.804;2023-10-31T07:37:59;98615.21;;;14.06;85.17
75536;BME280;64119;52.070;20.804;2023-10-31T07:40:27;98624.05;;;14.10;84.60
75536;BME280;64119;52.070;20.804;2023-10-31T07:42:55;98626.63;;;14.13;84.23
75536;BME280;64119;52.070;20.804;2023-10-31T07:45:23;98622.49;;;14.17;84.14
75536;BME280;64119;52.070;20.804;2023-10-31T07:47:51;98616.23;;;14.20;84.01
75536;BME280;64119;52.070;20.804;2023-10-31T07:50:19;98606.33;;;14.22;83.74
75536;BME280;64119;52.070;20.804;2023-10-31T07:52:47;98605.80;;;14.21;83.54
75536;BME280;64119;52.070;20.804;2023-10-31T07:55:15;98602.70;;;14.21;83.77
75536;BME280;64119;52.070;20.804;2023-10-31T07:57:43;98599.77;;;14.23;83.51
75536;BME280;64119;52.070;20.804;2023-10-31T08:00:11;98599.04;;;14.24;83.09
75536;BME280;64119;52.070;20.804;2023-10-31T08:02:40;98602.16;;;14.28;83.28
75536;BME280;64119;52.070;20.804;2023-10-31T08:05:09;98605.61;;;14.33;83.07
75536;BME280;64119;52.070;20.804;2023-10-31T08:07:38;98595.39;;;14.38;83.03
75536;BME280;64119;52.070;20.804;2023-10-31T08:10:06;98598.23;;;14.46;81.97
75536;BME280;64119;52.070;20.804;2023-10-31T08:12:35;98601.05;;;14.52;81.42
75536;BME280;64119;52.070;20.804;2023-10-31T08:15:03;98594.00;;;14.58;80.99
75536;BME280;64119;52.070;20.804;2023-10-31T08:17:31;98584.86;;;14.65;80.44
75536;BME280;64119;52.070;20.804;2023-10-31T08:19:59;98579.02;;;14.72;80.10
75536;BME280;64119;52.070;20.804;2023-10-31T08:22:27;98581.66;;;14.84;79.61
75536;BME280;64119;52.070;20.804;2023-10-31T08:24:55;98571.73;;;14.95;78.83
75536;BME280;64119;52.070;20.804;2023-10-31T08:27:22;98573.07;;;15.08;78.89
75536;BME280;64119;52.070;20.804;2023-10-31T08:29:50;98579.89;;;15.18;78.14
75536;BME280;64119;52.070;20.804;2023-10-31T08:32:18;98588.27;;;15.28;77.73
75536;BME280;64119;52.070;20.804;2023-10-31T08:34:47;98588.14;;;15.37;77.25
75536;BME280;64119;52.070;20.804;2023-10-31T08:37:15;98589.30;;;15.45;76.89
75536;BME280;64119;52.070;20.804;2023-10-31T08:39:42;98588.16;;;15.50;76.43
75536;BME280;64119;52.070;20.804;2023-10-31T08:42:12;98585.39;;;15.55;76.16
75536;BME280;64119;52.070;20.804;2023-10-31T08:44:40;98582.84;;;15.57;76.91
75536;BME280;64119;52.070;20.804;2023-10-31T08:47:08;98581.23;;;15.58;76.86
75536;BME280;64119;52.070;20.804;2023-10-31T08:49:36;98581.29;;;15.61;76.59
75536;BME280;64119;52.070;20.804;2023-10-31T08:52:04;98584.14;;;15.64;76.19
75536;BME280;64119;52.070;20.804;2023-10-31T08:54:33;98584.72;;;15.66;74.95
75536;BME280;64119;52.070;20.804;2023-10-31T08:57:01;98576.55;;;15.68;74.75
75536;BME280;64119;52.070;20.804;2023-10-31T08:59:28;98583.34;;;15.67;74.81
75536;BME280;64119;52.070;20.804;2023-10-31T09:01:56;98585.69;;;15.67;74.60
75536;BME280;64119;52.070;20.804;2023-10-31T09:04:24;98585.58;;;15.68;74.66
75536;BME280;64119;52.070;20.804;2023-10-31T09:06:52;98585.27;;;15.67;74.39
75536;BME280;64119;52.070;20.804;2023-10-31T09:09:20;98584.67;;;15.66;74.82
75536;BME280;64119;52.070;20.804;2023-10-31T09:11:48;98585.69;;;15.66;74.49
75536;BME280;64119;52.070;20.804;2023-10-31T09:14:16;98589.37;;;15.65;74.77
75536;BME280;64119;52.070;20.804;2023-10-31T09:16:43;98588.34;;;15.62;74.95
75536;BME280;64119;52.070;20.804;2023-10-31T09:19:11;98592.41;;;15.64;75.00
75536;BME280;64119;52.070;20.804;2023-10-31T09:21:39;98590.02;;;15.65;74.68
75536;BME280;64119;52.070;20.804;2023-10-31T09:24:08;98587.83;;;15.64;74.43
75536;BME280;64119;52.070;20.804;2023-10-31T09:26:36;98590.77;;;15.64;74.37
75536;BME280;64119;52.070;20.804;2023-10-31T09:29:03;98584.02;;;15.65;74.80
75536;BME280;64119;52.070;20.804;2023-10-31T09:31:32;98592.75;;;15.68;75.08
75536;BME280;64119;52.070;20.804;2023-10-31T09:33:59;98595.92;;;15.69;74.43
75536;BME280;64119;52.070;20.804;2023-10-31T09:36:27;98599.13;;;15.71;74.50
75536;BME280;64119;52.070;20.804;2023-10-31T09:38:56;98599.55;;;15.74;74.25
75536;BME280;64119;52.070;20.804;2023-10-31T09:41:24;98600.27;;;15.79;74.11
75536;BME280;64119;52.070;20.804;2023-10-31T09:43:52;98599.20;;;15.86;74.21
75536;BME280;64119;52.070;20.804;2023-10-31T09:46:21;98603.55;;;15.94;73.93
75536;BME280;64119;52.070;20.804;2023-10-31T09:48:49;98601.63;;;16.04;73.60
75536;BME280;64119;52.070;20.804;2023-10-31T09:51:17;98594.79;;;16.13;72.93
75536;BME280;64119;52.070;20.804;2023-10-31T09:53:46;98590.02;;;16.19;72.49
75536;BME280;64119;52.070;20.804;2023-10-31T09:56:15;98593.72;;;16.26;72.33
75536;BME280;64119;52.070;20.804;2023-10-31T09:58:42;98586.82;;;16.31;72.13
75536;BME280;64119;52.070;20.804;2023-10-31T10:01:10;98581.30;;;16.37;71.44
75536;BME280;64119;52.070;20.804;2023-10-31T10:03:40;98578.57;;;16.42;71.99
75536;BME280;64119;52.070;20.804;2023-10-31T10:06:09;98580.75;;;16.49;71.55
75536;BME280;64119;52.070;20.804;2023-10-31T10:08:38;98582.66;;;16.55;71.61
75536;BME280;64119;52.070;20.804;2023-10-31T10:11:06;98585.48;;;16.63;71.70
75536;BME280;64119;52.070;20.804;2023-10-31T10:13:35;98582.73;;;16.70;70.85
75536;BME280;64119;52.070;20.804;2023-10-31T10:16:03;98589.88;;;16.80;71.58
75536;BME280;64119;52.070;20.804;2023-10-31T10:18:32;98594.19;;;16.92;70.26
75536;BME280;64119;52.070;20.804;2023-10-31T10:21:02;98600.86;;;17.03;70.12
75536;BME280;64119;52.070;20.804;2023-10-31T10:23:30;98600.50;;;17.12;70.19
75536;BME280;64119;52.070;20.804;2023-10-31T10:26:03;98603.04;;;17.22;70.08
75536;BME280;64119;52.070;20.804;2023-10-31T10:28:31;98603.01;;;17.31;69.90
75536;BME280;64119;52.070;20.804;2023-10-31T10:31:00;98602.37;;;17.42;69.14
75536;BME280;64119;52.070;20.804;2023-10-31T10:33:28;98603.93;;;17.57;68.72
75536;BME280;64119;52.070;20.804;2023-10-31T10:35:56;98603.74;;;17.72;68.42
75536;BME280;64119;52.070;20.804;2023-10-31T10:38:25;98603.06;;;17.87;67.73
75536;BME280;64119;52.070;20.804;2023-10-31T10:53:24;98598.59;;;18.55;63.73
75536;BME280;64119;52.070;20.804;2023-10-31T10:55:55;98603.80;;;18.49;64.05
75536;BME280;64119;52.070;20.804;2023-10-31T10:58:27;98606.36;;;18.42;64.88
75536;BME280;64119;52.070;20.804;2023-10-31T11:00:58;98610.20;;;18.39;65.03
75536;BME280;64119;52.070;20.804;2023-10-31T11:03:26;98618.15;;;18.33;65.11
75536;BME280;64119;52.070;20.804;2023-10-31T11:05:53;98621.92;;;18.30;65.16
75536;BME280;64119;52.070;20.804;2023-10-31T11:08:20;98624.26;;;18.27;65.30
75536;BME280;64119;52.070;20.804;2023-10-31T11:10:50;98628.64;;;18.22;65.22
75536;BME280;64119;52.070;20.804;2023-10-31T11:13:16;98631.48;;;18.15;65.23
75536;BME280;64119;52.070;20.804;2023-10-31T11:15:43;98630.61;;;18.09;65.74
75536;BME280;64119;52.070;20.804;2023-10-31T11:18:10;98632.57;;;18.05;66.31
75536;BME280;64119;52.070;20.804;2023-10-31T11:20:38;98632.33;;;18.02;66.61
75536;BME280;64119;52.070;20.804;2023-10-31T11:23:06;98630.96;;;17.98;66.39
75536;BME280;64119;52.070;20.804;2023-10-31T11:25:33;98633.78;;;17.93;66.94
75536;BME280;64119;52.070;20.804;2023-10-31T11:30:37;98641.42;;;17.87;67.63
75536;BME280;64119;52.070;20.804;2023-10-31T11:33:04;98643.27;;;17.86;67.70
75536;BME280;64119;52.070;20.804;2023-10-31T11:35:38;98651.42;;;17.84;67.40
75536;BME280;64119;52.070;20.804;2023-10-31T11:38:06;98639.36;;;17.75;67.75
75536;BME280;64119;52.070;20.804;2023-10-31T11:40:37;98648.50;;;17.70;68.02
75536;BME280;64119;52.070;20.804;2023-10-31T11:43:06;98649.09;;;17.59;68.62
75536;BME280;64119;52.070;20.804;2023-10-31T11:45:36;98649.21;;;17.53;69.07
75536;BME280;64119;52.070;20.804;2023-10-31T11:48:04;98639.25;;;17.45;69.59
75536;BME280;64119;52.070;20.804;2023-10-31T11:50:32;98647.14;;;17.43;70.02
75536;BME280;64119;52.070;20.804;2023-10-31T11:53:03;98662.90;;;17.42;70.44
75536;BME280;64119;52.070;20.804;2023-10-31T11:55:40;98668.60;;;17.41;70.66
75536;BME280;64119;52.070;20.804;2023-10-31T11:58:18;98664.25;;;17.40;70.67
75536;BME280;64119;52.070;20.804;2023-10-31T12:00:50;98664.41;;;17.38;70.86
75536;BME280;64119;52.070;20.804;2023-10-31T12:03:18;98671.77;;;17.37;70.68
75536;BME280;64119;52.070;20.804;2023-10-31T12:05:55;98670.36;;;17.41;70.75
75536;BME280;64119;52.070;20.804;2023-10-31T12:10:53;98671.55;;;17.72;69.34
75536;BME280;64119;52.070;20.804;2023-10-31T12:13:19;98673.02;;;17.79;69.04
75536;BME280;64119;52.070;20.804;2023-10-31T12:15:52;98681.23;;;17.80;68.44
75536;BME280;64119;52.070;20.804;2023-10-31T12:18:19;98679.58;;;17.77;68.32
75536;BME280;64119;52.070;20.804;2023-10-31T12:20:50;98678.19;;;17.74;68.58
75536;BME280;64119;52.070;20.804;2023-10-31T12:23:18;98671.98;;;17.72;68.53
75536;BME280;64119;52.070;20.804;2023-10-31T12:25:49;98676.73;;;17.67;68.92
75536;BME280;64119;52.070;20.804;2023-10-31T12:28:20;98678.61;;;17.64;69.30
75536;BME280;64119;52.070;20.804;2023-10-31T12:30:48;98684.55;;;17.58;69.42
75536;BME280;64119;52.070;20.804;2023-10-31T12:33:15;98695.64;;;17.48;69.95
75536;BME280;64119;52.070;20.804;2023-10-31T12:35:43;98707.20;;;17.39;70.35
75536;BME280;64119;52.070;20.804;2023-10-31T12:38:11;98700.15;;;17.31;70.70
75536;BME280;64119;52.070;20.804;2023-10-31T12:40:43;98703.23;;;17.23;70.74
75536;BME280;64119;52.070;20.804;2023-10-31T12:43:10;98701.59;;;17.12;71.19
75536;BME280;64119;52.070;20.804;2023-10-31T12:45:36;98698.54;;;17.05;71.54
75536;BME280;64119;52.070;20.804;2023-10-31T12:48:05;98702.35;;;17.00;71.90
75536;BME280;64119;52.070;20.804;2023-10-31T12:50:33;98700.76;;;16.95;72.03
75536;BME280;64119;52.070;20.804;2023-10-31T12:53:00;98713.98;;;16.87;72.48
75536;BME280;64119;52.070;20.804;2023-10-31T12:55:27;98723.25;;;16.83;72.60
75536;BME280;64119;52.070;20.804;2023-10-31T12:57:57;98738.84;;;16.77;72.68
75536;BME280;64119;52.070;20.804;2023-10-31T13:00:31;98747.46;;;16.70;73.15
75536;BME280;64119;52.070;20.804;2023-10-31T13:03:06;98745.59;;;16.65;73.42
75536;BME280;64119;52.070;20.804;2023-10-31T13:05:34;98752.17;;;16.63;73.35
75536;BME280;64119;52.070;20.804;2023-10-31T13:08:00;98749.06;;;16.63;73.56
75536;BME280;64119;52.070;20.804;2023-10-31T13:10:33;98734.84;;;16.66;73.49
75536;BME280;64119;52.070;20.804;2023-10-31T13:13:00;98735.41;;;16.69;73.26